sensor_id;sensor_type;location;lat;lon;timestamp;pressure;altitude;pressure_sealevel;temperature;humidity
81511;BME280;70931;48.796;8.440;2023-11-21T00:01:57;96620.56;;;8.81;86.40
81511;BME280;70931;48.796;8.440;2023-11-21T00:04:23;96609.66;;;8.68;87.07
81511;BME280;70931;48.796;8.440;2023-11-21T00:06:48;96626.94;;;8.72;86.52
81511;BME280;70931;48.796;8.440;2023-11-21T00:09:14;96612.63;;;8.73;85.65
81511;BME280;70931;48.796;8.440;2023-11-21T00:11:39;96604.34;;;8.68;86.76
81511;BME280;70931;48.796;8.440;2023-11-21T00:14:04;96600.66;;;8.77;86.63
81511;BME280;70931;48.796;8.440;2023-11-21T00:16:30;96602.81;;;8.73;86.16
81511;BME280;70931;48.796;8.440;2023-11-21T00:18:55;96605.78;;;8.78;86.14
81511;BME280;70931;48.796;8.440;2023-11-21T00:21:20;96601.34;;;8.71;86.08
81511;BME280;70931;48.796;8.440;2023-11-21T00:23:46;96601.03;;;8.66;84.53
81511;BME280;70931;48.796;8.440;2023-11-21T00:26:11;96591.69;;;8.70;85.88
81511;BME280;70931;48.796;8.440;2023-11-21T00:28:36;96593.22;;;8.64;85.40
81511;BME280;70931;48.796;8.440;2023-11-21T00:31:01;96594.09;;;8.87;84.89
81511;BME280;70931;48.796;8.440;2023-11-21T00:33:26;96601.34;;;8.71;85.63
81511;BME280;70931;48.796;8.440;2023-11-21T00:35:52;96613.94;;;8.77;86.01
81511;BME280;70931;48.796;8.440;2023-11-21T00:38:17;96609.88;;;8.89;85.28
81511;BME280;70931;48.796;8.440;2023-11-21T00:40:42;96612.50;;;8.66;85.45
81511;BME280;70931;48.796;8.440;2023-11-21T00:43:07;96616.66;;;8.69;86.04
81511;BME280;70931;48.796;8.440;2023-11-21T00:45:32;96609.00;;;8.66;86.22
81511;BME280;70931;48.796;8.440;2023-11-21T00:47:58;96612.63;;;8.73;84.86
81511;BME280;70931;48.796;8.440;2023-11-21T00:50:23;96624.28;;;8.72;86.19
81511;BME280;70931;48.796;8.440;2023-11-21T00:52:48;96603.69;;;8.66;86.32
81511;BME280;70931;48.796;8.440;2023-11-21T00:55:13;96611.91;;;8.79;85.44
81511;BME280;70931;48.796;8.440;2023-11-21T00:57:39;96615.94;;;8.75;85.74
81511;BME280;70931;48.796;8.440;2023-11-21T01:00:05;96607.56;;;8.86;84.25
81511;BME280;70931;48.796;8.440;2023-11-21T01:02:30;96614.91;;;8.84;85.51
81511;BME280;70931;48.796;8.440;2023-11-21T01:04:55;96617.16;;;8.95;85.33
81511;BME280;70931;48.796;8.440;2023-11-21T01:07:21;96618.81;;;8.96;85.45
81511;BME280;70931;48.796;8.440;2023-11-21T01:09:46;96610.47;;;8.99;85.07
81511;BME280;70931;48.796;8.440;2023-11-21T01:12:11;96610.88;;;8.88;85.96
81511;BME280;70931;48.796;8.440;2023-11-21T01:14:36;96615.44;;;9.02;85.77
81511;BME280;70931;48.796;8.440;2023-11-21T01:17:02;96602.97;;;9.02;83.77
81511;BME280;70931;48.796;8.440;2023-11-21T01:19:27;96601.06;;;8.88;85.49
81511;BME280;70931;48.796;8.440;2023-11-21T01:21:52;96604.88;;;8.94;85.79
81511;BME280;70931;48.796;8.440;2023-11-21T01:24:17;96603.53;;;8.90;85.62
81511;BME280;70931;48.796;8.440;2023-11-21T01:26:43;96594.09;;;8.87;86.23
81511;BME280;70931;48.796;8.440;2023-11-21T01:29:08;96603.31;;;8.99;85.91
81511;BME280;70931;48.796;8.440;2023-11-21T01:31:33;96599.84;;;8.99;86.16
81511;BME280;70931;48.796;8.440;2023-11-21T01:33:58;96599.94;;;8.83;86.65
81511;BME280;70931;48.796;8.440;2023-11-21T01:36:30;96601.34;;;8.71;87.14
81511;BME280;70931;48.796;8.440;2023-11-21T01:38:55;96600.25;;;8.88;87.01
81511;BME280;70931;48.796;8.440;2023-11-21T01:41:20;96603.91;;;8.87;86.84
81511;BME280;70931;48.796;8.440;2023-11-21T01:43:45;96598.22;;;8.90;87.00
81511;BME280;70931;48.796;8.440;2023-11-21T01:46:10;96599.53;;;8.94;86.76
81511;BME280;70931;48.796;8.440;2023-11-21T01:48:36;96581.91;;;8.70;87.95
81511;BME280;70931;48.796;8.440;2023-11-21T01:51:02;96602.75;;;8.89;87.67
81511;BME280;70931;48.796;8.440;2023-11-21T01:53:27;96594.41;;;8.92;87.38
81511;BME280;70931;48.796;8.440;2023-11-21T01:55:53;96601.28;;;8.79;86.69
81511;BME280;70931;48.796;8.440;2023-11-21T01:58:18;96602.25;;;8.86;86.76
81511;BME280;70931;48.796;8.440;2023-11-21T02:00:43;96594.56;;;8.91;86.13
81511;BME280;70931;48.796;8.440;2023-11-21T02:03:08;96598.56;;;8.95;86.21
81511;BME280;70931;48.796;8.440;2023-11-21T02:05:34;96607.72;;;8.92;85.60
81511;BME280;70931;48.796;8.440;2023-11-21T02:07:59;96599.59;;;8.86;86.40
81511;BME280;70931;48.796;8.440;2023-11-21T02:10:24;96598.91;;;8.92;86.22
81511;BME280;70931;48.796;8.440;2023-11-21T02:12:50;96597.59;;;8.88;86.50
81511;BME280;70931;48.796;8.440;2023-11-21T02:15:16;96598.81;;;8.77;87.53
81511;BME280;70931;48.796;8.440;2023-11-21T02:17:42;96598.56;;;8.87;87.08
81511;BME280;70931;48.796;8.440;2023-11-21T02:20:08;96594.97;;;8.80;86.86
81511;BME280;70931;48.796;8.440;2023-11-21T02:22:35;96597.00;;;8.70;86.89
81511;BME280;70931;48.796;8.440;2023-11-21T02:25:04;96593.63;;;8.84;86.98
81511;BME280;70931;48.796;8.440;2023-11-21T02:27:29;96602.75;;;8.89;87.14
81511;BME280;70931;48.796;8.440;2023-11-21T02:29:55;96598.97;;;8.84;87.01
81511;BME280;70931;48.796;8.440;2023-11-21T02:32:20;96604.97;;;8.78;87.03
81511;BME280;70931;48.796;8.440;2023-11-21T02:34:45;96605.31;;;8.75;86.94
81511;BME280;70931;48.796;8.440;2023-11-21T02:37:10;96604.97;;;8.78;86.99
81511;BME280;70931;48.796;8.440;2023-11-21T02:39:36;96600.59;;;8.85;86.88
81511;BME280;70931;48.796;8.440;2023-11-21T02:42:01;96603.91;;;8.87;86.92
81511;BME280;70931;48.796;8.440;2023-11-21T02:44:26;96605.00;;;8.70;87.35
81511;BME280;70931;48.796;8.440;2023-11-21T02:46:51;96609.75;;;8.51;87.85
81511;BME280;70931;48.796;8.440;2023-11-21T02:49:17;96615.09;;;8.43;87.62
81511;BME280;70931;48.796;8.440;2023-11-21T02:51:42;96611.13;;;8.39;87.99
81511;BME280;70931;48.796;8.440;2023-11-21T02:54:08;96605.97;;;8.46;88.10
81511;BME280;70931;48.796;8.440;2023-11-21T02:56:34;96615.41;;;8.48;87.31
81511;BME280;70931;48.796;8.440;2023-11-21T02:59:00;96605.72;;;8.55;87.34
81511;BME280;70931;48.796;8.440;2023-11-21T03:01:25;96600.16;;;8.42;87.01
81511;BME280;70931;48.796;8.440;2023-11-21T03:03:51;96607.81;;;8.37;87.74
81511;BME280;70931;48.796;8.440;2023-11-21T03:06:18;96606.53;;;8.17;86.92
81511;BME280;70931;48.796;8.440;2023-11-21T03:08:43;96605.50;;;8.34;87.16
81511;BME280;70931;48.796;8.440;2023-11-21T03:11:09;96601.88;;;8.27;86.58
81511;BME280;70931;48.796;8.440;2023-11-21T03:13:34;96608.16;;;8.26;87.57
81511;BME280;70931;48.796;8.440;2023-11-21T03:15:59;96604.53;;;8.27;88.03
81511;BME280;70931;48.796;8.440;2023-11-21T03:18:24;96596.25;;;8.14;87.68
81511;BME280;70931;48.796;8.440;2023-11-21T03:20:52;96604.53;;;8.19;87.04
81511;BME280;70931;48.796;8.440;2023-11-21T03:23:18;96604.81;;;8.40;86.85
81511;BME280;70931;48.796;8.440;2023-11-21T03:25:43;96604.16;;;8.38;86.50
81511;BME280;70931;48.796;8.440;2023-11-21T03:28:08;96607.34;;;8.65;85.33
81511;BME280;70931;48.796;8.440;2023-11-21T03:30:34;96602.56;;;8.60;86.64
81511;BME280;70931;48.796;8.440;2023-11-21T03:32:59;96598.28;;;8.51;86.96
81511;BME280;70931;48.796;8.440;2023-11-21T03:35:24;96600.41;;;8.55;86.84
81511;BME280;70931;48.796;8.440;2023-11-21T03:37:49;96597.19;;;8.37;86.98
81511;BME280;70931;48.796;8.440;2023-11-21T03:40:15;96593.81;;;8.51;86.42
81511;BME280;70931;48.796;8.440;2023-11-21T03:42:40;96585.78;;;8.59;86.12
81511;BME280;70931;48.796;8.440;2023-11-21T03:45:06;96604.13;;;8.46;87.03
81511;BME280;70931;48.796;8.440;2023-11-21T03:47:31;96608.47;;;8.39;87.73
81511;BME280;70931;48.796;8.440;2023-11-21T03:49:57;96608.72;;;8.52;86.98
81511;BME280;70931;48.796;8.440;2023-11-21T03:52:22;96600.84;;;8.36;87.98
81511;BME280;70931;48.796;8.440;2023-11-21T03:54:47;96589.00;;;8.47;86.97
81511;BME280;70931;48.796;8.440;2023-11-21T03:57:12;96607.81;;;8.37;86.88
81511;BME280;70931;48.796;8.440;2023-11-21T03:59:41;96608.44;;;8.47;86.36
81511;BME280;70931;48.796;8.440;2023-11-21T04:02:06;96610.25;;;8.55;86.55
81511;BME280;70931;48.796;8.440;2023-11-21T04:04:31;96610.97;;;8.72;86.78
81511;BME280;70931;48.796;8.440;2023-11-21T04:06:56;96611.31;;;8.69;86.81
81511;BME280;70931;48.796;8.440;2023-11-21T04:09:22;96609.25;;;8.48;86.88
81511;BME280;70931;48.796;8.440;2023-11-21T04:11:47;96619.28;;;8.38;86.93
81511;BME280;70931;48.796;8.440;2023-11-21T04:14:13;96608.84;;;8.28;86.79
81511;BME280;70931;48.796;8.440;2023-11-21T04:16:38;96606.50;;;8.33;86.40
81511;BME280;70931;48.796;8.440;2023-11-21T04:19:03;96610.81;;;8.26;87.93
81511;BME280;70931;48.796;8.440;2023-11-21T04:21:28;96619.09;;;8.39;87.32
81511;BME280;70931;48.796;8.440;2023-11-21T04:23:54;96621.78;;;8.31;87.20
81511;BME280;70931;48.796;8.440;2023-11-21T04:26:19;96622.78;;;8.30;87.05
81511;BME280;70931;48.796;8.440;2023-11-21T04:28:44;96602.41;;;8.15;87.06
81511;BME280;70931;48.796;8.440;2023-11-21T04:31:09;96626.09;;;8.32;86.70
81511;BME280;70931;48.796;8.440;2023-11-21T04:33:34;96626.75;;;8.34;87.05
81511;BME280;70931;48.796;8.440;2023-11-21T04:36:00;96618.78;;;8.26;87.26
81511;BME280;70931;48.796;8.440;2023-11-21T04:38:25;96630.72;;;8.38;86.72
81511;BME280;70931;48.796;8.440;2023-11-21T04:40:50;96633.38;;;8.46;86.42
81511;BME280;70931;48.796;8.440;2023-11-21T04:43:15;96640.34;;;8.39;86.54
81511;BME280;70931;48.796;8.440;2023-11-21T04:45:41;96608.00;;;8.28;86.57
81511;BME280;70931;48.796;8.440;2023-11-21T04:48:07;96626.38;;;8.45;86.86
81511;BME280;70931;48.796;8.440;2023-11-21T04:50:32;96637.81;;;8.54;86.74
81511;BME280;70931;48.796;8.440;2023-11-21T04:52:57;96640.38;;;8.31;87.04
81511;BME280;70931;48.796;8.440;2023-11-21T04:55:23;96631.06;;;8.35;87.44
81511;BME280;70931;48.796;8.440;2023-11-21T04:57:48;96645.63;;;8.47;86.90
81511;BME280;70931;48.796;8.440;2023-11-21T05:00:13;96640.38;;;8.31;87.28
81511;BME280;70931;48.796;8.440;2023-11-21T05:02:41;96650.19;;;8.31;87.06
81511;BME280;70931;48.796;8.440;2023-11-21T05:05:07;96654.66;;;8.30;86.11
81511;BME280;70931;48.796;8.440;2023-11-21T05:07:32;96642.03;;;8.40;85.97
81511;BME280;70931;48.796;8.440;2023-11-21T05:09:58;96653.00;;;8.29;87.30
81511;BME280;70931;48.796;8.440;2023-11-21T05:12:23;96656.31;;;8.31;87.41
81511;BME280;70931;48.796;8.440;2023-11-21T05:14:50;96652.31;;;8.35;87.04
81511;BME280;70931;48.796;8.440;2023-11-21T05:17:15;96655.63;;;8.37;87.19
81511;BME280;70931;48.796;8.440;2023-11-21T05:19:40;96651.34;;;8.28;86.47
81511;BME280;70931;48.796;8.440;2023-11-21T05:22:05;96655.63;;;8.21;87.93
81511;BME280;70931;48.796;8.440;2023-11-21T05:24:31;96653.81;;;8.30;87.74
81511;BME280;70931;48.796;8.440;2023-11-21T05:26:56;96663.75;;;8.36;87.34
81511;BME280;70931;48.796;8.440;2023-11-21T05:29:22;96661.28;;;8.34;86.70
81511;BME280;70931;48.796;8.440;2023-11-21T05:31:47;96670.91;;;8.43;86.92
81511;BME280;70931;48.796;8.440;2023-11-21T05:34:12;96666.22;;;8.45;86.89
81511;BME280;70931;48.796;8.440;2023-11-21T05:36:37;96665.38;;;8.53;86.78
81511;BME280;70931;48.796;8.440;2023-11-21T05:39:03;96667.03;;;8.54;87.19
81511;BME280;70931;48.796;8.440;2023-11-21T05:41:28;96673.03;;;8.48;86.78
81511;BME280;70931;48.796;8.440;2023-11-21T05:43:53;96676.88;;;8.45;86.66
81511;BME280;70931;48.796;8.440;2023-11-21T05:46:18;96675.25;;;8.20;87.11
81511;BME280;70931;48.796;8.440;2023-11-21T05:48:44;96670.59;;;8.14;87.00
81511;BME280;70931;48.796;8.440;2023-11-21T05:51:09;96684.53;;;8.32;86.87
81511;BME280;70931;48.796;8.440;2023-11-21T05:53:34;96687.56;;;8.29;86.60
81511;BME280;70931;48.796;8.440;2023-11-21T05:56:00;96683.53;;;8.25;86.99
81511;BME280;70931;48.796;8.440;2023-11-21T05:58:25;96694.34;;;8.32;87.13
81511;BME280;70931;48.796;8.440;2023-11-21T06:00:50;96694.34;;;8.32;87.09
81511;BME280;70931;48.796;8.440;2023-11-21T06:03:15;96695.84;;;8.10;87.58
81511;BME280;70931;48.796;8.440;2023-11-21T06:05:41;96689.22;;;8.06;87.14
81511;BME280;70931;48.796;8.440;2023-11-21T06:08:06;96693.19;;;8.34;86.07
81511;BME280;70931;48.796;8.440;2023-11-21T06:10:31;96692.16;;;8.35;86.66
81511;BME280;70931;48.796;8.440;2023-11-21T06:12:56;96695.53;;;8.29;87.02
81511;BME280;70931;48.796;8.440;2023-11-21T06:15:22;96704.78;;;8.25;86.56
81511;BME280;70931;48.796;8.440;2023-11-21T06:17:47;96708.75;;;8.45;85.92
81511;BME280;70931;48.796;8.440;2023-11-21T06:20:12;96701.97;;;8.35;86.64
81511;BME280;70931;48.796;8.440;2023-11-21T06:22:39;96706.16;;;8.29;86.63
81511;BME280;70931;48.796;8.440;2023-11-21T06:25:06;96709.44;;;8.23;87.32
81511;BME280;70931;48.796;8.440;2023-11-21T06:27:32;96716.56;;;8.07;87.74
81511;BME280;70931;48.796;8.440;2023-11-21T06:29:57;96704.78;;;8.25;86.87
81511;BME280;70931;48.796;8.440;2023-11-21T06:32:22;96715.94;;;8.21;86.71
81511;BME280;70931;48.796;8.440;2023-11-21T06:34:48;96717.75;;;8.36;86.45
81511;BME280;70931;48.796;8.440;2023-11-21T06:37:13;96710.75;;;8.19;87.49
81511;BME280;70931;48.796;8.440;2023-11-21T06:39:38;96721.06;;;8.22;87.39
81511;BME280;70931;48.796;8.440;2023-11-21T06:42:03;96723.72;;;8.30;86.24
81511;BME280;70931;48.796;8.440;2023-11-21T06:44:29;96725.03;;;8.18;87.11
81511;BME280;70931;48.796;8.440;2023-11-21T06:46:54;96721.22;;;8.13;87.84
81511;BME280;70931;48.796;8.440;2023-11-21T06:49:19;96728.19;;;8.30;87.27
81511;BME280;70931;48.796;8.440;2023-11-21T06:51:44;96727.34;;;8.45;86.73
81511;BME280;70931;48.796;8.440;2023-11-21T06:54:10;96734.66;;;8.43;87.22
81511;BME280;70931;48.796;8.440;2023-11-21T06:56:35;96731.84;;;8.37;87.16
81511;BME280;70931;48.796;8.440;2023-11-21T06:59:00;96738.31;;;8.42;86.55
81511;BME280;70931;48.796;8.440;2023-11-21T07:01:25;96736.97;;;8.38;86.51
81511;BME280;70931;48.796;8.440;2023-11-21T07:03:50;96741.97;;;8.41;86.90
81511;BME280;70931;48.796;8.440;2023-11-21T07:06:16;96740.94;;;8.50;86.58
81511;BME280;70931;48.796;8.440;2023-11-21T07:08:41;96751.25;;;8.53;86.63
81511;BME280;70931;48.796;8.440;2023-11-21T07:11:06;96736.97;;;8.38;85.91
81511;BME280;70931;48.796;8.440;2023-11-21T07:13:31;96738.66;;;8.39;86.60
81511;BME280;70931;48.796;8.440;2023-11-21T07:15:59;96747.59;;;8.38;86.53
81511;BME280;70931;48.796;8.440;2023-11-21T07:18:25;96760.41;;;8.19;85.97
81511;BME280;70931;48.796;8.440;2023-11-21T07:20:50;96768.22;;;8.28;86.62
81511;BME280;70931;48.796;8.440;2023-11-21T07:23:15;96769.53;;;8.24;86.90
81511;BME280;70931;48.796;8.440;2023-11-21T07:25:40;96771.22;;;8.09;87.37
81511;BME280;70931;48.796;8.440;2023-11-21T07:28:06;96770.84;;;8.04;87.26
81511;BME280;70931;48.796;8.440;2023-11-21T07:30:31;96782.16;;;8.14;86.92
81511;BME280;70931;48.796;8.440;2023-11-21T07:32:56;96782.50;;;8.11;86.94
81511;BME280;70931;48.796;8.440;2023-11-21T07:35:21;96785.81;;;7.97;87.86
81511;BME280;70931;48.796;8.440;2023-11-21T07:37:47;96778.81;;;7.96;87.79
81511;BME280;70931;48.796;8.440;2023-11-21T07:40:12;96791.78;;;8.07;88.00
81511;BME280;70931;48.796;8.440;2023-11-21T07:42:37;96772.53;;;7.97;87.95
81511;BME280;70931;48.796;8.440;2023-11-21T07:45:04;96787.47;;;8.06;88.10
81511;BME280;70931;48.796;8.440;2023-11-21T07:47:30;96791.94;;;8.14;87.22
81511;BME280;70931;48.796;8.440;2023-11-21T07:49:55;96795.75;;;8.19;87.86
81511;BME280;70931;48.796;8.440;2023-11-21T07:52:20;96794.41;;;8.15;86.91
81511;BME280;70931;48.796;8.440;2023-11-21T07:54:45;96799.41;;;8.18;87.24
81511;BME280;70931;48.796;8.440;2023-11-21T07:57:11;96795.94;;;8.42;86.92
81511;BME280;70931;48.796;8.440;2023-11-21T07:59:36;96800.56;;;8.24;86.63
81511;BME280;70931;48.796;8.440;2023-11-21T08:02:01;96806.91;;;8.15;87.77
81511;BME280;70931;48.796;8.440;2023-11-21T08:04:26;96808.91;;;8.37;87.01
81511;BME280;70931;48.796;8.440;2023-11-21T08:06:51;96807.09;;;8.29;86.90
81511;BME280;70931;48.796;8.440;2023-11-21T08:09:17;96806.06;;;8.30;87.17
81511;BME280;70931;48.796;8.440;2023-11-21T08:11:42;96810.03;;;8.18;87.51
81511;BME280;70931;48.796;8.440;2023-11-21T08:14:08;96810.38;;;8.23;87.04
81511;BME280;70931;48.796;8.440;2023-11-21T08:16:33;96809.53;;;8.23;87.10
81511;BME280;70931;48.796;8.440;2023-11-21T08:18:58;96804.88;;;8.25;87.37
81511;BME280;70931;48.796;8.440;2023-11-21T08:21:23;96818.19;;;8.49;86.78
81511;BME280;70931;48.796;8.440;2023-11-21T08:23:49;96821.03;;;8.31;86.77
81511;BME280;70931;48.796;8.440;2023-11-21T08:26:16;96823.84;;;8.30;87.17
81511;BME280;70931;48.796;8.440;2023-11-21T08:28:41;96819.03;;;8.33;87.15
81511;BME280;70931;48.796;8.440;2023-11-21T08:31:06;96826.97;;;8.25;87.03
81511;BME280;70931;48.796;8.440;2023-11-21T08:33:31;96834.81;;;8.43;86.22
81511;BME280;70931;48.796;8.440;2023-11-21T08:35:57;96828.66;;;8.42;86.21
81511;BME280;70931;48.796;8.440;2023-11-21T08:38:22;96834.75;;;8.27;87.12
81511;BME280;70931;48.796;8.440;2023-11-21T08:40:47;96829.97;;;8.30;86.88
81511;BME280;70931;48.796;8.440;2023-11-21T08:43:12;96834.63;;;8.20;87.40
81511;BME280;70931;48.796;8.440;2023-11-21T08:45:38;96835.94;;;8.24;87.87
81511;BME280;70931;48.796;8.440;2023-11-21T08:48:03;96829.00;;;8.39;86.93
81511;BME280;70931;48.796;8.440;2023-11-21T08:50:28;96829.16;;;8.46;86.50
81511;BME280;70931;48.796;8.440;2023-11-21T08:52:54;96815.53;;;8.49;85.85
81511;BME280;70931;48.796;8.440;2023-11-21T08:55:19;96830.94;;;8.78;85.48
81511;BME280;70931;48.796;8.440;2023-11-21T08:57:44;96826.94;;;8.74;86.31
81511;BME280;70931;48.796;8.440;2023-11-21T09:00:10;96837.41;;;8.67;86.11
81511;BME280;70931;48.796;8.440;2023-11-21T09:02:35;96830.13;;;8.69;86.60
81511;BME280;70931;48.796;8.440;2023-11-21T09:05:01;96839.59;;;8.72;86.00
81511;BME280;70931;48.796;8.440;2023-11-21T09:07:26;96843.25;;;8.71;86.43
81511;BME280;70931;48.796;8.440;2023-11-21T09:09:51;96845.78;;;8.32;85.98
81511;BME280;70931;48.796;8.440;2023-11-21T09:12:16;96849.25;;;8.48;87.32
81511;BME280;70931;48.796;8.440;2023-11-21T09:14:42;96851.91;;;8.48;87.13
81511;BME280;70931;48.796;8.440;2023-11-21T09:17:09;96840.94;;;8.27;87.85
81511;BME280;70931;48.796;8.440;2023-11-21T09:19:35;96856.69;;;8.21;87.67
81511;BME280;70931;48.796;8.440;2023-11-21T09:22:00;96860.00;;;8.23;86.98
81511;BME280;70931;48.796;8.440;2023-11-21T09:24:25;96864.38;;;8.32;87.74
81511;BME280;70931;48.796;8.440;2023-11-21T09:26:50;96874.47;;;8.52;86.66
81511;BME280;70931;48.796;8.440;2023-11-21T09:29:16;96873.50;;;8.53;87.06
81511;BME280;70931;48.796;8.440;2023-11-21T09:31:41;96872.81;;;8.59;86.19
81511;BME280;70931;48.796;8.440;2023-11-21T09:34:06;96880.81;;;8.59;86.45
81511;BME280;70931;48.796;8.440;2023-11-21T09:36:31;96876.81;;;8.72;86.09
81511;BME280;70931;48.796;8.440;2023-11-21T09:38:56;96877.47;;;8.74;86.66
81511;BME280;70931;48.796;8.440;2023-11-21T09:41:31;96889.59;;;8.60;87.43
81511;BME280;70931;48.796;8.440;2023-11-21T09:43:59;96891.75;;;8.65;86.38
81511;BME280;70931;48.796;8.440;2023-11-21T09:46:27;96888.41;;;8.79;86.57
81511;BME280;70931;48.796;8.440;2023-11-21T09:48:53;96886.91;;;8.84;86.68
81511;BME280;70931;48.796;8.440;2023-11-21T09:51:19;96895.06;;;8.91;86.80
81511;BME280;70931;48.796;8.440;2023-11-21T09:53:49;96895.56;;;8.94;86.88
81511;BME280;70931;48.796;8.440;2023-11-21T09:56:15;96902.38;;;8.89;86.47
81511;BME280;70931;48.796;8.440;2023-11-21T09:58:40;96900.34;;;8.99;86.30
81511;BME280;70931;48.796;8.440;2023-11-21T10:01:05;96904.00;;;9.06;86.15
81511;BME280;70931;48.796;8.440;2023-11-21T10:03:31;96898.03;;;8.96;86.48
81511;BME280;70931;48.796;8.440;2023-11-21T10:05:56;96902.38;;;8.97;86.19
81511;BME280;70931;48.796;8.440;2023-11-21T10:08:22;96905.19;;;8.95;86.43
81511;BME280;70931;48.796;8.440;2023-11-21T10:10:51;96897.88;;;8.81;86.48
81511;BME280;70931;48.796;8.440;2023-11-21T10:13:18;96889.44;;;8.78;86.35
81511;BME280;70931;48.796;8.440;2023-11-21T10:15:44;96902.38;;;8.65;87.31
81511;BME280;70931;48.796;8.440;2023-11-21T10:18:09;96904.22;;;8.72;87.09
81511;BME280;70931;48.796;8.440;2023-11-21T10:20:34;96907.03;;;8.71;86.72
81511;BME280;70931;48.796;8.440;2023-11-21T10:23:00;96901.22;;;8.67;86.85
81511;BME280;70931;48.796;8.440;2023-11-21T10:25:26;96905.53;;;8.84;86.24
81511;BME280;70931;48.796;8.440;2023-11-21T10:27:57;96907.38;;;8.84;86.15
81511;BME280;70931;48.796;8.440;2023-11-21T10:30:27;96903.38;;;8.88;86.18
81511;BME280;70931;48.796;8.440;2023-11-21T10:32:58;96905.38;;;8.86;86.51
81511;BME280;70931;48.796;8.440;2023-11-21T10:35:24;96912.50;;;8.85;86.53
81511;BME280;70931;48.796;8.440;2023-11-21T10:37:59;96913.38;;;8.78;86.76
81511;BME280;70931;48.796;8.440;2023-11-21T10:40:27;96916.97;;;8.93;86.35
81511;BME280;70931;48.796;8.440;2023-11-21T10:42:52;96907.69;;;8.97;86.15
81511;BME280;70931;48.796;8.440;2023-11-21T10:45:18;96919.63;;;9.09;86.48
81511;BME280;70931;48.796;8.440;2023-11-21T10:47:44;96919.78;;;9.15;85.98
81511;BME280;70931;48.796;8.440;2023-11-21T10:50:09;96918.00;;;8.92;85.91
81511;BME280;70931;48.796;8.440;2023-11-21T10:52:34;96917.81;;;9.09;86.39
81511;BME280;70931;48.796;8.440;2023-11-21T10:55:00;96919.94;;;9.14;86.28
81511;BME280;70931;48.796;8.440;2023-11-21T10:57:25;96919.31;;;9.12;86.61
81511;BME280;70931;48.796;8.440;2023-11-21T10:59:54;96918.97;;;8.99;86.74
81511;BME280;70931;48.796;8.440;2023-11-21T11:02:25;96922.97;;;9.03;86.56
81511;BME280;70931;48.796;8.440;2023-11-21T11:04:52;96922.31;;;8.93;86.52
81511;BME280;70931;48.796;8.440;2023-11-21T11:07:17;96918.34;;;8.81;87.15
81511;BME280;70931;48.796;8.440;2023-11-21T11:09:43;96930.28;;;9.01;87.08
81511;BME280;70931;48.796;8.440;2023-11-21T11:12:09;96936.91;;;9.05;86.64
81511;BME280;70931;48.796;8.440;2023-11-21T11:14:35;96930.28;;;9.01;86.51
81511;BME280;70931;48.796;8.440;2023-11-21T11:17:01;96928.59;;;9.08;86.98
81511;BME280;70931;48.796;8.440;2023-11-21T11:19:27;96930.28;;;9.09;86.96
81511;BME280;70931;48.796;8.440;2023-11-21T11:24:58;96933.44;;;9.12;86.58
81511;BME280;70931;48.796;8.440;2023-11-21T11:27:40;96943.91;;;9.06;86.46
81511;BME280;70931;48.796;8.440;2023-11-21T11:30:26;96938.25;;;9.09;86.88
81511;BME280;70931;48.796;8.440;2023-11-21T11:33:08;96933.06;;;9.15;86.62
81511;BME280;70931;48.796;8.440;2023-11-21T11:38:21;96938.75;;;9.21;85.67
81511;BME280;70931;48.796;8.440;2023-11-21T11:40:47;96942.19;;;9.37;86.01
81511;BME280;70931;48.796;8.440;2023-11-21T11:43:13;96927.59;;;9.17;86.65
81511;BME280;70931;48.796;8.440;2023-11-21T11:45:38;96938.91;;;9.11;86.02
81511;BME280;70931;48.796;8.440;2023-11-21T11:48:05;96931.59;;;9.13;86.78
81511;BME280;70931;48.796;8.440;2023-11-21T11:50:31;96932.44;;;9.05;86.63
81511;BME280;70931;48.796;8.440;2023-11-21T11:53:12;96938.59;;;9.06;86.70
81511;BME280;70931;48.796;8.440;2023-11-21T11:55:38;96935.41;;;9.10;86.16
81511;BME280;70931;48.796;8.440;2023-11-21T11:58:05;96937.75;;;9.13;86.23
81511;BME280;70931;48.796;8.440;2023-11-21T12:00:34;96941.56;;;9.11;86.69
81511;BME280;70931;48.796;8.440;2023-11-21T12:03:01;96935.94;;;8.98;85.92
81511;BME280;70931;48.796;8.440;2023-11-21T12:05:27;96943.25;;;8.96;86.49
81511;BME280;70931;48.796;8.440;2023-11-21T12:07:54;96936.59;;;9.08;86.55
81511;BME280;70931;48.796;8.440;2023-11-21T12:10:21;96941.91;;;9.00;87.62
81511;BME280;70931;48.796;8.440;2023-11-21T12:12:51;96925.16;;;8.91;87.45
81511;BME280;70931;48.796;8.440;2023-11-21T12:15:17;96947.38;;;8.98;87.12
81511;BME280;70931;48.796;8.440;2023-11-21T12:17:43;96941.25;;;9.06;87.42
81511;BME280;70931;48.796;8.440;2023-11-21T12:20:09;96925.44;;;9.04;86.68
81511;BME280;70931;48.796;8.440;2023-11-21T12:22:35;96942.25;;;9.05;86.99
81511;BME280;70931;48.796;8.440;2023-11-21T12:25:00;96947.56;;;9.05;86.65
81511;BME280;70931;48.796;8.440;2023-11-21T12:27:25;96946.72;;;9.04;87.27
81511;BME280;70931;48.796;8.440;2023-11-21T12:29:50;96949.91;;;9.00;87.54
81511;BME280;70931;48.796;8.440;2023-11-21T12:32:16;96951.38;;;9.02;87.33
81511;BME280;70931;48.796;8.440;2023-11-21T12:34:41;96952.72;;;8.90;86.99
81511;BME280;70931;48.796;8.440;2023-11-21T12:37:07;96948.09;;;8.92;87.79
81511;BME280;70931;48.796;8.440;2023-11-21T12:39:32;96958.03;;;8.98;87.62
81511;BME280;70931;48.796;8.440;2023-11-21T12:41:57;96955.22;;;9.00;87.27
81511;BME280;70931;48.796;8.440;2023-11-21T12:44:23;96961.88;;;8.88;87.76
81511;BME280;70931;48.796;8.440;2023-11-21T12:46:48;96960.72;;;8.74;88.60
81511;BME280;70931;48.796;8.440;2023-11-21T12:49:14;96966.88;;;8.75;88.15
81511;BME280;70931;48.796;8.440;2023-11-21T12:51:39;96967.53;;;8.77;88.15
81511;BME280;70931;48.796;8.440;2023-11-21T12:54:05;96965.84;;;8.76;87.77
81511;BME280;70931;48.796;8.440;2023-11-21T12:56:31;96967.84;;;8.66;88.53
81511;BME280;70931;48.796;8.440;2023-11-21T12:58:57;96968.19;;;8.54;89.47
81511;BME280;70931;48.796;8.440;2023-11-21T13:01:25;96970.50;;;8.66;89.08
81511;BME280;70931;48.796;8.440;2023-11-21T13:03:50;96969.84;;;8.64;88.96
81511;BME280;70931;48.796;8.440;2023-11-21T13:06:16;96965.19;;;8.74;88.99
81511;BME280;70931;48.796;8.440;2023-11-21T13:08:44;96966.53;;;8.86;88.61